sensor_id;sensor_type;location;lat;lon;timestamp;P1;durP1;ratioP1;P2;durP2;ratioP2
35887;SDS011;21990;42.540;23.496;2024-01-11T00:00:36;75.50;;;26.98;;
35887;SDS011;21990;42.540;23.496;2024-01-11T00:03:02;65.45;;;24.95;;
35887;SDS011;21990;42.540;23.496;2024-01-11T00:05:28;69.85;;;26.15;;
35887;SDS011;21990;42.540;23.496;2024-01-11T00:07:54;81.70;;;27.02;;
35887;SDS011;21990;42.540;23.496;2024-01-11T00:10:20;72.88;;;26.38;;
35887;SDS011;21990;42.540;23.496;2024-01-11T00:12:45;68.72;;;26.90;;
35887;SDS011;21990;42.540;23.496;2024-01-11T00:15:12;74.82;;;27.77;;
35887;SDS011;21990;42.540;23.496;2024-01-11T00:17:38;61.88;;;23.45;;
35887;SDS011;21990;42.540;23.496;2024-01-11T00:20:05;62.58;;;24.33;;
35887;SDS011;21990;42.540;23.496;2024-01-11T00:22:34;72.95;;;25.77;;
35887;SDS011;21990;42.540;23.496;2024-01-11T00:25:00;68.85;;;25.77;;
35887;SDS011;21990;42.540;23.496;2024-01-11T00:27:25;66.45;;;24.90;;
35887;SDS011;21990;42.540;23.496;2024-01-11T00:29:51;60.40;;;23.55;;
35887;SDS011;21990;42.540;23.496;2024-01-11T00:32:18;55.83;;;22.13;;
35887;SDS011;21990;42.540;23.496;2024-01-11T00:34:43;60.05;;;22.83;;
35887;SDS011;21990;42.540;23.496;2024-01-11T00:37:09;51.53;;;20.83;;
35887;SDS011;21990;42.540;23.496;2024-01-11T00:39:34;50.47;;;20.52;;
35887;SDS011;21990;42.540;23.496;2024-01-11T00:42:00;53.65;;;22.30;;
35887;SDS011;21990;42.540;23.496;2024-01-11T00:44:25;61.63;;;24.98;;
35887;SDS011;21990;42.540;23.496;2024-01-11T00:46:52;57.58;;;20.30;;
35887;SDS011;21990;42.540;23.496;2024-01-11T00:49:20;56.70;;;22.52;;
35887;SDS011;21990;42.540;23.496;2024-01-11T00:51:45;157.30;;;51.08;;
35887;SDS011;21990;42.540;23.496;2024-01-11T00:54:11;171.80;;;55.83;;
35887;SDS011;21990;42.540;23.496;2024-01-11T00:56:36;119.25;;;40.05;;
35887;SDS011;21990;42.540;23.496;2024-01-11T00:59:02;171.88;;;59.45;;
35887;SDS011;21990;42.540;23.496;2024-01-11T01:01:28;81.57;;;27.65;;
35887;SDS011;21990;42.540;23.496;2024-01-11T01:03:54;87.10;;;26.00;;
35887;SDS011;21990;42.540;23.496;2024-01-11T01:06:19;69.68;;;26.13;;
35887;SDS011;21990;42.540;23.496;2024-01-11T01:08:45;89.13;;;27.92;;
35887;SDS011;21990;42.540;23.496;2024-01-11T01:11:10;110.63;;;31.77;;
35887;SDS011;21990;42.540;23.496;2024-01-11T01:13:36;108.43;;;32.47;;
35887;SDS011;21990;42.540;23.496;2024-01-11T01:16:01;85.38;;;29.52;;
35887;SDS011;21990;42.540;23.496;2024-01-11T01:18:27;77.72;;;26.42;;
35887;SDS011;21990;42.540;23.496;2024-01-11T01:20:52;94.30;;;29.30;;
35887;SDS011;21990;42.540;23.496;2024-01-11T01:23:18;91.35;;;27.58;;
35887;SDS011;21990;42.540;23.496;2024-01-11T01:25:44;105.32;;;29.73;;
35887;SDS011;21990;42.540;23.496;2024-01-11T01:28:10;106.22;;;28.52;;
35887;SDS011;21990;42.540;23.496;2024-01-11T01:30:35;78.68;;;28.23;;
35887;SDS011;21990;42.540;23.496;2024-01-11T01:33:01;61.22;;;21.83;;
35887;SDS011;21990;42.540;23.496;2024-01-11T01:35:27;45.55;;;17.35;;
35887;SDS011;21990;42.540;23.496;2024-01-11T01:37:53;59.78;;;23.35;;
35887;SDS011;21990;42.540;23.496;2024-01-11T01:40:18;53.17;;;18.33;;
35887;SDS011;21990;42.540;23.496;2024-01-11T01:42:44;41.05;;;14.75;;
35887;SDS011;21990;42.540;23.496;2024-01-11T01:45:11;62.92;;;16.60;;
35887;SDS011;21990;42.540;23.496;2024-01-11T01:47:37;68.90;;;19.90;;
35887;SDS011;21990;42.540;23.496;2024-01-11T01:50:05;69.80;;;21.50;;
35887;SDS011;21990;42.540;23.496;2024-01-11T01:52:31;73.07;;;18.80;;
35887;SDS011;21990;42.540;23.496;2024-01-11T01:54:58;50.20;;;16.48;;
35887;SDS011;21990;42.540;23.496;2024-01-11T01:57:24;54.67;;;18.25;;
35887;SDS011;21990;42.540;23.496;2024-01-11T01:59:50;60.60;;;19.27;;
35887;SDS011;21990;42.540;23.496;2024-01-11T02:02:20;63.33;;;19.45;;
35887;SDS011;21990;42.540;23.496;2024-01-11T02:04:46;66.82;;;19.42;;
35887;SDS011;21990;42.540;23.496;2024-01-11T02:07:12;99.72;;;28.50;;
35887;SDS011;21990;42.540;23.496;2024-01-11T02:09:39;43.33;;;15.60;;
35887;SDS011;21990;42.540;23.496;2024-01-11T02:12:05;44.05;;;15.77;;
35887;SDS011;21990;42.540;23.496;2024-01-11T02:14:31;56.80;;;17.77;;
35887;SDS011;21990;42.540;23.496;2024-01-11T02:16:57;62.58;;;22.67;;
35887;SDS011;21990;42.540;23.496;2024-01-11T02:19:23;36.95;;;13.20;;
35887;SDS011;21990;42.540;23.496;2024-01-11T02:21:49;86.10;;;13.18;;
35887;SDS011;21990;42.540;23.496;2024-01-11T02:24:17;51.42;;;14.85;;
35887;SDS011;21990;42.540;23.496;2024-01-11T02:29:27;56.13;;;15.87;;
35887;SDS011;21990;42.540;23.496;2024-01-11T02:31:54;35.80;;;12.40;;
35887;SDS011;21990;42.540;23.496;2024-01-11T02:34:20;48.17;;;14.60;;
35887;SDS011;21990;42.540;23.496;2024-01-11T02:36:46;37.40;;;12.50;;
35887;SDS011;21990;42.540;23.496;2024-01-11T02:39:13;35.45;;;11.90;;
35887;SDS011;21990;42.540;23.496;2024-01-11T02:41:41;39.90;;;13.23;;
35887;SDS011;21990;42.540;23.496;2024-01-11T02:44:08;37.63;;;13.93;;
35887;SDS011;21990;42.540;23.496;2024-01-11T02:46:33;45.00;;;14.43;;
35887;SDS011;21990;42.540;23.496;2024-01-11T02:48:59;38.85;;;15.07;;
35887;SDS011;21990;42.540;23.496;2024-01-11T02:51:25;45.88;;;15.52;;
35887;SDS011;21990;42.540;23.496;2024-01-11T02:53:50;43.90;;;15.60;;
35887;SDS011;21990;42.540;23.496;2024-01-11T02:56:16;46.97;;;16.13;;
35887;SDS011;21990;42.540;23.496;2024-01-11T02:58:41;46.55;;;14.30;;
35887;SDS011;21990;42.540;23.496;2024-01-11T03:01:07;37.60;;;13.13;;
35887;SDS011;21990;42.540;23.496;2024-01-11T03:03:32;38.08;;;12.98;;
35887;SDS011;21990;42.540;23.496;2024-01-11T03:05:58;42.03;;;12.43;;
35887;SDS011;21990;42.540;23.496;2024-01-11T03:08:26;36.88;;;12.32;;
35887;SDS011;21990;42.540;23.496;2024-01-11T03:10:52;32.45;;;10.93;;
35887;SDS011;21990;42.540;23.496;2024-01-11T03:13:17;45.17;;;14.32;;
35887;SDS011;21990;42.540;23.496;2024-01-11T03:15:43;49.88;;;16.33;;
35887;SDS011;21990;42.540;23.496;2024-01-11T03:18:09;46.28;;;15.20;;
35887;SDS011;21990;42.540;23.496;2024-01-11T03:20:34;43.70;;;15.82;;
35887;SDS011;21990;42.540;23.496;2024-01-11T03:23:00;38.22;;;15.27;;
35887;SDS011;21990;42.540;23.496;2024-01-11T03:25:26;44.38;;;16.17;;
35887;SDS011;21990;42.540;23.496;2024-01-11T03:27:51;43.38;;;14.85;;
35887;SDS011;21990;42.540;23.496;2024-01-11T03:30:17;49.50;;;16.10;;
35887;SDS011;21990;42.540;23.496;2024-01-11T03:32:42;46.13;;;16.90;;
35887;SDS011;21990;42.540;23.496;2024-01-11T03:35:08;47.83;;;16.75;;
35887;SDS011;21990;42.540;23.496;2024-01-11T03:37:34;45.47;;;16.90;;
35887;SDS011;21990;42.540;23.496;2024-01-11T03:40:00;70.85;;;25.02;;
35887;SDS011;21990;42.540;23.496;2024-01-11T03:42:26;59.00;;;20.25;;
35887;SDS011;21990;42.540;23.496;2024-01-11T03:44:52;50.80;;;19.90;;
35887;SDS011;21990;42.540;23.496;2024-01-11T03:47:17;87.03;;;29.40;;
35887;SDS011;21990;42.540;23.496;2024-01-11T03:49:44;227.02;;;77.75;;
35887;SDS011;21990;42.540;23.496;2024-01-11T03:52:09;93.45;;;35.15;;
35887;SDS011;21990;42.540;23.496;2024-01-11T03:54:35;78.28;;;29.48;;
35887;SDS011;21990;42.540;23.496;2024-01-11T03:57:01;53.88;;;20.08;;
35887;SDS011;21990;42.540;23.496;2024-01-11T03:59:26;45.10;;;16.85;;
35887;SDS011;21990;42.540;23.496;2024-01-11T04:01:52;95.82;;;36.58;;
35887;SDS011;21990;42.540;23.496;2024-01-11T04:04:18;57.95;;;21.50;;
35887;SDS011;21990;42.540;23.496;2024-01-11T04:06:44;75.80;;;30.83;;
35887;SDS011;21990;42.540;23.496;2024-01-11T04:09:10;164.32;;;65.75;;
35887;SDS011;21990;42.540;23.496;2024-01-11T04:11:35;195.25;;;77.72;;
35887;SDS011;21990;42.540;23.496;2024-01-11T04:14:02;66.28;;;27.02;;
35887;SDS011;21990;42.540;23.496;2024-01-11T04:16:28;40.63;;;15.40;;
35887;SDS011;21990;42.540;23.496;2024-01-11T04:18:54;37.03;;;13.40;;
35887;SDS011;21990;42.540;23.496;2024-01-11T04:21:23;31.20;;;12.95;;
35887;SDS011;21990;42.540;23.496;2024-01-11T04:23:49;34.13;;;13.23;;
35887;SDS011;21990;42.540;23.496;2024-01-11T04:26:16;44.72;;;15.68;;
35887;SDS011;21990;42.540;23.496;2024-01-11T04:28:44;177.82;;;75.15;;
35887;SDS011;21990;42.540;23.496;2024-01-11T04:31:11;52.63;;;20.45;;
35887;SDS011;21990;42.540;23.496;2024-01-11T04:33:40;46.47;;;17.60;;
35887;SDS011;21990;42.540;23.496;2024-01-11T04:36:07;44.40;;;16.45;;
35887;SDS011;21990;42.540;23.496;2024-01-11T04:38:33;56.97;;;19.55;;
35887;SDS011;21990;42.540;23.496;2024-01-11T04:40:59;49.65;;;18.75;;
35887;SDS011;21990;42.540;23.496;2024-01-11T04:43:24;50.50;;;15.88;;
35887;SDS011;21990;42.540;23.496;2024-01-11T04:45:50;67.32;;;17.00;;
35887;SDS011;21990;42.540;23.496;2024-01-11T04:48:16;59.60;;;18.65;;
35887;SDS011;21990;42.540;23.496;2024-01-11T04:50:41;45.97;;;18.83;;
35887;SDS011;21990;42.540;23.496;2024-01-11T04:53:07;60.15;;;17.40;;
35887;SDS011;21990;42.540;23.496;2024-01-11T04:55:32;44.38;;;17.48;;
35887;SDS011;21990;42.540;23.496;2024-01-11T04:57:58;55.83;;;17.83;;
35887;SDS011;21990;42.540;23.496;2024-01-11T05:00:23;52.15;;;16.83;;
35887;SDS011;21990;42.540;23.496;2024-01-11T05:02:49;40.35;;;15.15;;
35887;SDS011;21990;42.540;23.496;2024-01-11T05:05:14;42.55;;;16.17;;
35887;SDS011;21990;42.540;23.496;2024-01-11T05:07:40;51.20;;;17.02;;
35887;SDS011;21990;42.540;23.496;2024-01-11T05:10:06;38.80;;;15.98;;
35887;SDS011;21990;42.540;23.496;2024-01-11T05:12:32;43.10;;;17.17;;
35887;SDS011;21990;42.540;23.496;2024-01-11T05:14:58;49.45;;;16.25;;
35887;SDS011;21990;42.540;23.496;2024-01-11T05:17:24;44.53;;;16.02;;
35887;SDS011;21990;42.540;23.496;2024-01-11T05:19:50;51.40;;;16.45;;
35887;SDS011;21990;42.540;23.496;2024-01-11T05:22:16;93.82;;;24.52;;
35887;SDS011;21990;42.540;23.496;2024-01-11T05:24:42;73.68;;;23.20;;
35887;SDS011;21990;42.540;23.496;2024-01-11T05:27:08;94.28;;;27.13;;
35887;SDS011;21990;42.540;23.496;2024-01-11T05:29:33;96.63;;;26.63;;
35887;SDS011;21990;42.540;23.496;2024-01-11T05:31:59;58.83;;;20.05;;
35887;SDS011;21990;42.540;23.496;2024-01-11T05:34:24;48.97;;;18.30;;
35887;SDS011;21990;42.540;23.496;2024-01-11T05:36:50;56.78;;;20.15;;
35887;SDS011;21990;42.540;23.496;2024-01-11T05:39:16;61.42;;;18.25;;
35887;SDS011;21990;42.540;23.496;2024-01-11T05:41:44;66.00;;;23.58;;
35887;SDS011;21990;42.540;23.496;2024-01-11T05:44:10;77.45;;;29.25;;
35887;SDS011;21990;42.540;23.496;2024-01-11T05:46:36;109.65;;;35.05;;
35887;SDS011;21990;42.540;23.496;2024-01-11T05:49:01;144.35;;;41.08;;
35887;SDS011;21990;42.540;23.496;2024-01-11T05:51:27;239.75;;;59.60;;
35887;SDS011;21990;42.540;23.496;2024-01-11T05:53:52;218.63;;;58.38;;
35887;SDS011;21990;42.540;23.496;2024-01-11T05:56:18;132.98;;;41.22;;
35887;SDS011;21990;42.540;23.496;2024-01-11T05:58:45;52.25;;;18.00;;
35887;SDS011;21990;42.540;23.496;2024-01-11T06:01:11;63.05;;;18.30;;
35887;SDS011;21990;42.540;23.496;2024-01-11T06:03:36;90.15;;;33.22;;
35887;SDS011;21990;42.540;23.496;2024-01-11T06:06:03;86.05;;;32.67;;
35887;SDS011;21990;42.540;23.496;2024-01-11T06:08:29;124.68;;;48.03;;
35887;SDS011;21990;42.540;23.496;2024-01-11T06:10:56;83.07;;;30.67;;
35887;SDS011;21990;42.540;23.496;2024-01-11T06:13:22;71.63;;;24.70;;
35887;SDS011;21990;42.540;23.496;2024-01-11T06:15:47;52.97;;;18.77;;
35887;SDS011;21990;42.540;23.496;2024-01-11T06:18:13;46.55;;;18.10;;
35887;SDS011;21990;42.540;23.496;2024-01-11T06:20:38;66.03;;;23.08;;
35887;SDS011;21990;42.540;23.496;2024-01-11T06:23:04;47.13;;;18.67;;
35887;SDS011;21990;42.540;23.496;2024-01-11T06:25:29;56.63;;;18.95;;
35887;SDS011;21990;42.540;23.496;2024-01-11T06:27:55;52.33;;;20.58;;
35887;SDS011;21990;42.540;23.496;2024-01-11T06:30:20;53.00;;;20.15;;
35887;SDS011;21990;42.540;23.496;2024-01-11T06:32:46;50.75;;;21.20;;
35887;SDS011;21990;42.540;23.496;2024-01-11T06:35:11;45.42;;;18.13;;
35887;SDS011;21990;42.540;23.496;2024-01-11T06:37:37;44.75;;;17.70;;
35887;SDS011;21990;42.540;23.496;2024-01-11T06:40:03;46.47;;;17.02;;
35887;SDS011;21990;42.540;23.496;2024-01-11T06:42:30;40.63;;;16.63;;
35887;SDS011;21990;42.540;23.496;2024-01-11T06:44:55;45.85;;;16.50;;
35887;SDS011;21990;42.540;23.496;2024-01-11T06:47:21;45.15;;;18.63;;
35887;SDS011;21990;42.540;23.496;2024-01-11T06:49:47;48.20;;;18.30;;
35887;SDS011;21990;42.540;23.496;2024-01-11T06:52:12;49.70;;;19.88;;
35887;SDS011;21990;42.540;23.496;2024-01-11T06:54:39;73.68;;;28.80;;
35887;SDS011;21990;42.540;23.496;2024-01-11T06:57:05;69.72;;;28.88;;
35887;SDS011;21990;42.540;23.496;2024-01-11T06:59:30;75.75;;;28.77;;
35887;SDS011;21990;42.540;23.496;2024-01-11T07:01:56;72.13;;;29.20;;
35887;SDS011;21990;42.540;23.496;2024-01-11T07:04:21;71.47;;;30.10;;
35887;SDS011;21990;42.540;23.496;2024-01-11T07:06:47;72.80;;;28.08;;
35887;SDS011;21990;42.540;23.496;2024-01-11T07:09:13;76.05;;;28.38;;
35887;SDS011;21990;42.540;23.496;2024-01-11T07:11:38;67.10;;;26.48;;
35887;SDS011;21990;42.540;23.496;2024-01-11T07:14:04;75.68;;;25.85;;
35887;SDS011;21990;42.540;23.496;2024-01-11T07:16:29;76.72;;;26.27;;
35887;SDS011;21990;42.540;23.496;2024-01-11T07:18:56;71.38;;;25.58;;
35887;SDS011;21990;42.540;23.496;2024-01-11T07:21:25;55.08;;;21.52;;
35887;SDS011;21990;42.540;23.496;2024-01-11T07:23:55;55.60;;;21.08;;
35887;SDS011;21990;42.540;23.496;2024-01-11T07:26:22;62.13;;;23.10;;
35887;SDS011;21990;42.540;23.496;2024-01-11T07:28:48;91.95;;;33.08;;
35887;SDS011;21990;42.540;23.496;2024-01-11T07:31:14;116.57;;;46.90;;
35887;SDS011;21990;42.540;23.496;2024-01-11T07:33:39;87.75;;;36.38;;
35887;SDS011;21990;42.540;23.496;2024-01-11T07:36:05;71.35;;;28.98;;
35887;SDS011;21990;42.540;23.496;2024-01-11T07:38:31;67.53;;;27.02;;
35887;SDS011;21990;42.540;23.496;2024-01-11T07:40:57;66.30;;;27.15;;
35887;SDS011;21990;42.540;23.496;2024-01-11T07:43:22;68.90;;;27.15;;
35887;SDS011;21990;42.540;23.496;2024-01-11T07:45:48;61.97;;;25.45;;
35887;SDS011;21990;42.540;23.496;2024-01-11T07:48:14;61.33;;;24.63;;
35887;SDS011;21990;42.540;23.496;2024-01-11T07:50:39;56.33;;;21.67;;
35887;SDS011;21990;42.540;23.496;2024-01-11T07:53:05;50.92;;;22.15;;
35887;SDS011;21990;42.540;23.496;2024-01-11T07:55:30;55.10;;;20.73;;
35887;SDS011;21990;42.540;23.496;2024-01-11T07:57:56;50.67;;;20.85;;
35887;SDS011;21990;42.540;23.496;2024-01-11T08:00:28;44.10;;;19.10;;
35887;SDS011;21990;42.540;23.496;2024-01-11T08:02:55;36.45;;;14.25;;
35887;SDS011;21990;42.540;23.496;2024-01-11T08:05:21;35.83;;;14.00;;
35887;SDS011;21990;42.540;23.496;2024-01-11T08:07:47;43.53;;;17.58;;
35887;SDS011;21990;42.540;23.496;2024-01-11T08:10:12;37.97;;;16.48;;
35887;SDS011;21990;42.540;23.496;2024-01-11T08:12:38;35.13;;;14.30;;
35887;SDS011;21990;42.540;23.496;2024-01-11T08:15:04;35.50;;;14.52;;
35887;SDS011;21990;42.540;23.496;2024-01-11T08:17:30;29.75;;;13.73;;
35887;SDS011;21990;42.540;23.496;2024-01-11T08:19:55;24.15;;;10.82;;
35887;SDS011;21990;42.540;23.496;2024-01-11T08:22:21;40.50;;;16.88;;
35887;SDS011;21990;42.540;23.496;2024-01-11T08:24:48;50.03;;;19.90;;
35887;SDS011;21990;42.540;23.496;2024-01-11T08:27:13;41.75;;;18.73;;
35887;SDS011;21990;42.540;23.496;2024-01-11T08:29:42;46.58;;;17.65;;
35887;SDS011;21990;42.540;23.496;2024-01-11T08:32:08;40.08;;;17.00;;
35887;SDS011;21990;42.540;23.496;2024-01-11T08:34:34;40.28;;;15.63;;
35887;SDS011;21990;42.540;23.496;2024-01-11T08:36:59;35.22;;;15.13;;
35887;SDS011;21990;42.540;23.496;2024-01-11T08:39:25;40.33;;;15.70;;
35887;SDS011;21990;42.540;23.496;2024-01-11T08:41:50;30.08;;;12.43;;
35887;SDS011;21990;42.540;23.496;2024-01-11T08:44:17;29.67;;;11.77;;
35887;SDS011;21990;42.540;23.496;2024-01-11T08:46:43;25.50;;;11.38;;
35887;SDS011;21990;42.540;23.496;2024-01-11T08:49:10;24.25;;;10.90;;
35887;SDS011;21990;42.540;23.496;2024-01-11T08:51:38;27.02;;;11.00;;
35887;SDS011;21990;42.540;23.496;2024-01-11T08:54:03;31.83;;;11.55;;
35887;SDS011;21990;42.540;23.496;2024-01-11T08:56:30;28.75;;;11.85;;
35887;SDS011;21990;42.540;23.496;2024-01-11T08:58:56;22.77;;;10.25;;
35887;SDS011;21990;42.540;23.496;2024-01-11T09:01:23;23.42;;;11.13;;
35887;SDS011;21990;42.540;23.496;2024-01-11T09:03:50;28.88;;;11.13;;
35887;SDS011;21990;42.540;23.496;2024-01-11T09:06:16;29.58;;;12.70;;
35887;SDS011;21990;42.540;23.496;2024-01-11T09:08:41;20.38;;;9.63;;
35887;SDS011;21990;42.540;23.496;2024-01-11T09:11:07;17.30;;;7.90;;
35887;SDS011;21990;42.540;23.496;2024-01-11T09:13:33;24.98;;;8.10;;
35887;SDS011;21990;42.540;23.496;2024-01-11T09:15:58;12.80;;;6.75;;
35887;SDS011;21990;42.540;23.496;2024-01-11T09:18:24;15.75;;;7.22;;
35887;SDS011;21990;42.540;23.496;2024-01-11T09:20:49;25.52;;;9.52;;
35887;SDS011;21990;42.540;23.496;2024-01-11T09:23:15;23.95;;;8.18;;
35887;SDS011;21990;42.540;23.496;2024-01-11T09:25:43;16.92;;;7.43;;
35887;SDS011;21990;42.540;23.496;2024-01-11T09:28:08;20.88;;;6.95;;
35887;SDS011;21990;42.540;23.496;2024-01-11T09:30:34;19.23;;;6.80;;
35887;SDS011;21990;42.540;23.496;2024-01-11T09:32:59;18.17;;;7.05;;
35887;SDS011;21990;42.540;23.496;2024-01-11T09:35:25;17.00;;;7.20;;
35887;SDS011;21990;42.540;23.496;2024-01-11T09:37:51;18.17;;;7.50;;
35887;SDS011;21990;42.540;23.496;2024-01-11T09:40:17;16.02;;;6.97;;
35887;SDS011;21990;42.540;23.496;2024-01-11T09:42:43;15.48;;;6.40;;
35887;SDS011;21990;42.540;23.496;2024-01-11T09:45:13;14.20;;;6.13;;
35887;SDS011;21990;42.540;23.496;2024-01-11T09:47:46;14.48;;;5.95;;
35887;SDS011;21990;42.540;23.496;2024-01-11T09:50:15;12.63;;;5.95;;
35887;SDS011;21990;42.540;23.496;2024-01-11T09:52:48;18.60;;;7.32;;
35887;SDS011;21990;42.540;23.496;2024-01-11T09:55:15;16.95;;;7.82;;
35887;SDS011;21990;42.540;23.496;2024-01-11T09:57:43;15.52;;;7.65;;
35887;SDS011;21990;42.540;23.496;2024-01-11T10:00:11;20.35;;;7.40;;
35887;SDS011;21990;42.540;23.496;2024-01-11T10:05:11;23.02;;;9.95;;
35887;SDS011;21990;42.540;23.496;2024-01-11T10:07:39;19.65;;;7.38;;
35887;SDS011;21990;42.540;23.496;2024-01-11T10:10:06;14.43;;;5.80;;
35887;SDS011;21990;42.540;23.496;2024-01-11T10:12:34;20.55;;;9.15;;
35887;SDS011;21990;42.540;23.496;2024-01-11T10:15:07;16.77;;;8.02;;
35887;SDS011;21990;42.540;23.496;2024-01-11T10:17:35;14.30;;;4.88;;
35887;SDS011;21990;42.540;23.496;2024-01-11T10:20:06;19.05;;;9.63;;
35887;SDS011;21990;42.540;23.496;2024-01-11T10:22:35;13.63;;;6.72;;
35887;SDS011;21990;42.540;23.496;2024-01-11T10:25:08;15.52;;;7.07;;
35887;SDS011;21990;42.540;23.496;2024-01-11T10:27:42;36.90;;;17.15;;
35887;SDS011;21990;42.540;23.496;2024-01-11T10:30:10;33.40;;;18.25;;
35887;SDS011;21990;42.540;23.496;2024-01-11T10:32:44;53.88;;;26.58;;
35887;SDS011;21990;42.540;23.496;2024-01-11T10:35:11;31.58;;;15.93;;
35887;SDS011;21990;42.540;23.496;2024-01-11T10:37:37;17.02;;;10.35;;
35887;SDS011;21990;42.540;23.496;2024-01-11T10:40:06;17.30;;;7.78;;
35887;SDS011;21990;42.540;23.496;2024-01-11T10:42:44;19.25;;;9.27;;
35887;SDS011;21990;42.540;23.496;2024-01-11T10:45:14;14.57;;;6.15;;
35887;SDS011;21990;42.540;23.496;2024-01-11T10:47:54;10.55;;;6.15;;
35887;SDS011;21990;42.540;23.496;2024-01-11T10:50:24;22.13;;;10.82;;
35887;SDS011;21990;42.540;23.496;2024-01-11T10:53:41;18.17;;;7.05;;
35887;SDS011;21990;42.540;23.496;2024-01-11T10:55:55;13.50;;;6.78;;
35887;SDS011;21990;42.540;23.496;2024-01-11T10:58:24;12.60;;;6.53;;
35887;SDS011;21990;42.540;23.496;2024-01-11T11:00:52;16.17;;;7.45;;
35887;SDS011;21990;42.540;23.496;2024-01-11T11:03:19;16.95;;;7.43;;
35887;SDS011;21990;42.540;23.496;2024-01-11T11:05:51;18.85;;;7.88;;
35887;SDS011;21990;42.540;23.496;2024-01-11T11:08:18;20.83;;;9.18;;
35887;SDS011;21990;42.540;23.496;2024-01-11T11:10:45;20.02;;;9.27;;
35887;SDS011;21990;42.540;23.496;2024-01-11T11:13:13;18.83;;;8.40;;
35887;SDS011;21990;42.540;23.496;2024-01-11T11:15:41;31.58;;;15.13;;
35887;SDS011;21990;42.540;23.496;2024-01-11T11:18:12;43.53;;;19.58;;
35887;SDS011;21990;42.540;23.496;2024-01-11T11:20:38;36.67;;;15.75;;
35887;SDS011;21990;42.540;23.496;2024-01-11T11:23:07;31.90;;;14.88;;
35887;SDS011;21990;42.540;23.496;2024-01-11T11:25:37;24.48;;;11.57;;
35887;SDS011;21990;42.540;23.496;2024-01-11T11:28:05;42.22;;;18.63;;
35887;SDS011;21990;42.540;23.496;2024-01-11T11:30:36;32.00;;;13.90;;
35887;SDS011;21990;42.540;23.496;2024-01-11T11:35:35;36.72;;;12.38;;
35887;SDS011;21990;42.540;23.496;2024-01-11T11:38:01;24.88;;;11.80;;
35887;SDS011;21990;42.540;23.496;2024-01-11T11:40:37;37.13;;;17.52;;
35887;SDS011;21990;42.540;23.496;2024-01-11T11:43:10;34.42;;;14.80;;
35887;SDS011;21990;42.540;23.496;2024-01-11T11:45:35;32.75;;;14.00;;
35887;SDS011;21990;42.540;23.496;2024-01-11T11:48:36;30.35;;;15.05;;
35887;SDS011;21990;42.540;23.496;2024-01-11T11:51:15;44.47;;;15.55;;
35887;SDS011;21990;42.540;23.496;2024-01-11T11:53:41;34.08;;;15.15;;
35887;SDS011;21990;42.540;23.496;2024-01-11T11:56:09;47.17;;;18.08;;
35887;SDS011;21990;42.540;23.496;2024-01-11T11:58:36;41.53;;;15.20;;
35887;SDS011;21990;42.540;23.496;2024-01-11T12:01:02;40.70;;;15.45;;
35887;SDS011;21990;42.540;23.496;2024-01-11T12:03:30;36.40;;;15.73;;
35887;SDS011;21990;42.540;23.496;2024-01-11T12:05:57;42.97;;;15.52;;
35887;SDS011;21990;42.540;23.496;2024-01-11T12:08:23;37.45;;;16.63;;
35887;SDS011;21990;42.540;23.496;2024-01-11T12:10:49;36.30;;;15.88;;
35887;SDS011;21990;42.540;23.496;2024-01-11T12:13:16;39.95;;;16.48;;
35887;SDS011;21990;42.540;23.496;2024-01-11T12:15:42;41.13;;;17.70;;
35887;SDS011;21990;42.540;23.496;2024-01-11T12:18:08;41.67;;;17.38;;
35887;SDS011;21990;42.540;23.496;2024-01-11T12:20:33;150.60;;;57.97;;
35887;SDS011;21990;42.540;23.496;2024-01-11T12:22:59;62.30;;;25.10;;
35887;SDS011;21990;42.540;23.496;2024-01-11T12:25:24;46.42;;;18.83;;
35887;SDS011;21990;42.540;23.496;2024-01-11T12:27:50;54.97;;;22.85;;
35887;SDS011;21990;42.540;23.496;2024-01-11T12:30:17;72.30;;;30.95;;
35887;SDS011;21990;42.540;23.496;2024-01-11T12:32:43;60.35;;;24.60;;
35887;SDS011;21990;42.540;23.496;2024-01-11T12:35:09;69.70;;;29.80;;
35887;SDS011;21990;42.540;23.496;2024-01-11T12:37:35;79.10;;;33.83;;
35887;SDS011;21990;42.540;23.496;2024-01-11T12:40:01;54.92;;;22.30;;
35887;SDS011;21990;42.540;23.496;2024-01-11T12:42:27;56.42;;;22.08;;
35887;SDS011;21990;42.540;23.496;2024-01-11T12:44:53;49.22;;;21.58;;
35887;SDS011;21990;42.540;23.496;2024-01-11T12:47:18;48.25;;;21.83;;
35887;SDS011;21990;42.540;23.496;2024-01-11T12:49:47;50.35;;;24.40;;
35887;SDS011;21990;42.540;23.496;2024-01-11T12:52:16;47.17;;;20.92;;
35887;SDS011;21990;42.540;23.496;2024-01-11T12:54:43;49.03;;;21.42;;
35887;SDS011;21990;42.540;23.496;2024-01-11T12:57:20;44.60;;;20.13;;
35887;SDS011;21990;42.540;23.496;2024-01-11T12:59:46;47.88;;;21.02;;
35887;SDS011;21990;42.540;23.496;2024-01-11T13:02:12;48.13;;;21.33;;
35887;SDS011;21990;42.540;23.496;2024-01-11T13:04:42;47.97;;;20.75;;
35887;SDS011;21990;42.540;23.496;2024-01-11T13:07:09;48.80;;;19.85;;
35887;SDS011;21990;42.540;23.496;2024-01-11T13:09:36;58.85;;;27.40;;
35887;SDS011;21990;42.540;23.496;2024-01-11T13:12:02;58.83;;;22.92;;
35887;SDS011;21990;42.540;23.496;2024-01-11T13:14:28;45.65;;;21.13;;
35887;SDS011;21990;42.540;23.496;2024-01-11T13:16:54;72.28;;;26.27;;
35887;SDS011;21990;42.540;23.496;2024-01-11T13:19:20;72.68;;;28.85;;
35887;SDS011;21990;42.540;23.496;2024-01-11T13:21:45;61.58;;;26.75;;
35887;SDS011;21990;42.540;23.496;2024-01-11T13:24:11;88.78;;;33.47;;
35887;SDS011;21990;42.540;23.496;2024-01-11T13:26:38;67.30;;;26.17;;
35887;SDS011;21990;42.540;23.496;2024-01-11T13:29:04;62.67;;;24.00;;
35887;SDS011;21990;42.540;23.496;2024-01-11T13:31:39;59.30;;;23.92;;
35887;SDS011;21990;42.540;23.496;2024-01-11T13:34:04;44.35;;;18.52;;
35887;SDS011;21990;42.540;23.496;2024-01-11T13:36:30;38.60;;;19.95;;
35887;SDS011;21990;42.540;23.496;2024-01-11T13:38:56;47.00;;;22.35;;
35887;SDS011;21990;42.540;23.496;2024-01-11T13:41:21;217.02;;;79.25;;
35887;SDS011;21990;42.540;23.496;2024-01-11T13:43:47;147.18;;;57.28;;
35887;SDS011;21990;42.540;23.496;2024-01-11T13:46:13;58.80;;;26.38;;
35887;SDS011;21990;42.540;23.496;2024-01-11T13:48:41;43.55;;;20.17;;
35887;SDS011;21990;42.540;23.496;2024-01-11T13:51:07;80.90;;;42.75;;
35887;SDS011;21990;42.540;23.496;2024-01-11T13:53:35;58.75;;;27.63;;
35887;SDS011;21990;42.540;23.496;2024-01-11T13:56:00;81.47;;;45.33;;
35887;SDS011;21990;42.540;23.496;2024-01-11T13:58:26;51.65;;;28.25;;
35887;SDS011;21990;42.540;23.496;2024-01-11T14:00:52;36.35;;;18.50;;
35887;SDS011;21990;42.540;23.496;2024-01-11T14:03:17;35.83;;;18.00;;
35887;SDS011;21990;42.540;23.496;2024-01-11T14:05:43;32.20;;;15.95;;
35887;SDS011;21990;42.540;23.496;2024-01-11T14:08:08;34.10;;;18.58;;
35887;SDS011;21990;42.540;23.496;2024-01-11T14:10:34;39.67;;;15.45;;
35887;SDS011;21990;42.540;23.496;2024-01-11T14:13:02;28.95;;;14.52;;